Saltford, United Kingdom
Current Conditions -  °F | °C
As of 10:20 PM on Monday 20 Oct 2014 (Local Time) from EGGD Reporting Station
Broken Clouds Broken Clouds  
Wind Chill: 10°   Ceiling: 4800
Heat Index: 10°   Visibility: 6mi
Dew Point:   Wind: 9mph
Humidity: 94%   Direction: 210°SSW
Pressure: 29.88"   Gusts: NA
Location:  51.4°N, 2.46°W
Report Text: EGGD 202120Z 21008KT 9999 SCT006 BKN048 10/09 Q1012
Loading
Personal Weather Stations






























Interactive Weather Map
Tropical Storm Tracking
New forecast layout! Learn more

10-Day Weather Forecast

Advertisements
Track Severe Weather on mobile